createdAt,value
2023-01-19T04:56:44.603Z,21.80
2023-01-19T04:57:44.594Z,21.79
2023-01-19T04:58:44.587Z,21.80
2023-01-19T04:59:44.580Z,21.81
2023-01-19T05:00:44.577Z,21.81
2023-01-19T05:01:44.645Z,21.81
2023-01-19T05:02:44.591Z,21.81
2023-01-19T05:03:44.539Z,21.81
2023-01-19T05:04:44.532Z,21.82
2023-01-19T05:05:44.523Z,21.82
2023-01-19T05:06:44.518Z,21.82
2023-01-19T05:07:44.508Z,21.83
2023-01-19T05:08:45.482Z,21.83
2023-01-19T05:09:44.493Z,21.83
2023-01-19T05:10:44.509Z,21.84
2023-01-19T05:11:44.470Z,21.84
2023-01-19T05:12:44.460Z,21.83
2023-01-19T05:13:44.450Z,21.83
2023-01-19T05:14:44.441Z,21.83
2023-01-19T05:15:44.462Z,21.83
2023-01-19T05:16:44.420Z,21.83
2023-01-19T05:17:44.411Z,21.84
2023-01-19T05:18:44.405Z,21.83
2023-01-19T05:19:44.394Z,21.82
2023-01-19T05:20:44.386Z,21.84
2023-01-19T05:21:44.393Z,21.84
2023-01-19T05:22:44.368Z,21.84
2023-01-19T05:23:44.357Z,21.84
2023-01-19T05:24:44.355Z,21.83
2023-01-19T05:25:44.345Z,21.84
2023-01-19T05:26:44.359Z,21.84
2023-01-19T05:27:44.323Z,21.85
2023-01-19T05:28:44.313Z,21.85
2023-01-19T05:29:44.306Z,21.84
2023-01-19T05:30:44.329Z,21.84
2023-01-19T05:31:44.315Z,21.84
2023-01-19T05:32:44.286Z,21.84
2023-01-19T05:33:44.269Z,21.85
2023-01-19T05:34:44.259Z,21.85
2023-01-19T05:35:44.267Z,21.85
2023-01-19T05:36:44.256Z,21.84
2023-01-19T05:37:44.246Z,21.85
2023-01-19T05:38:44.226Z,21.85
2023-01-19T05:39:44.213Z,21.85
2023-01-19T05:40:44.221Z,21.85
2023-01-19T05:41:44.211Z,21.85
2023-01-19T05:42:44.240Z,21.85
2023-01-19T05:43:44.178Z,21.85
2023-01-19T05:44:44.171Z,21.86
2023-01-19T05:45:44.161Z,21.85
2023-01-19T05:46:44.202Z,21.86
2023-01-19T05:47:44.150Z,21.87
2023-01-19T05:48:45.001Z,21.88
2023-01-19T05:49:44.131Z,21.88
2023-01-19T05:50:44.117Z,21.87
2023-01-19T05:51:44.105Z,21.88
2023-01-19T05:52:44.098Z,21.87
2023-01-19T05:53:44.089Z,21.87
2023-01-19T05:54:44.081Z,21.87
2023-01-19T05:55:44.070Z,21.86
2023-01-19T05:56:44.067Z,21.86
2023-01-19T05:57:44.093Z,21.86
2023-01-19T05:58:44.076Z,21.87
2023-01-19T05:59:44.034Z,21.87
2023-01-19T06:00:44.025Z,21.88
2023-01-19T06:01:44.061Z,21.86
2023-01-19T06:02:44.092Z,21.87
2023-01-19T06:03:44.001Z,21.86
2023-01-19T06:04:43.987Z,21.86
2023-01-19T06:05:43.980Z,21.87
2023-01-19T06:06:43.970Z,21.86
2023-01-19T06:07:43.968Z,21.86
2023-01-19T06:08:43.953Z,21.86
2023-01-19T06:09:43.942Z,21.87
2023-01-19T06:10:43.935Z,21.86
2023-01-19T06:11:43.928Z,21.87
2023-01-19T06:12:43.918Z,21.86
2023-01-19T06:13:43.936Z,21.86
2023-01-19T06:14:43.924Z,21.86
2023-01-19T06:15:43.891Z,21.87
2023-01-19T06:16:44.020Z,21.87
2023-01-19T06:17:43.873Z,21.87
2023-01-19T06:18:44.005Z,21.87
2023-01-19T06:19:43.872Z,21.87
2023-01-19T06:20:43.856Z,21.87
2023-01-19T06:21:43.839Z,21.88
2023-01-19T06:22:43.838Z,21.88
2023-01-19T06:23:43.973Z,21.89
2023-01-19T06:24:43.817Z,21.89
2023-01-19T06:25:43.807Z,21.89
2023-01-19T06:26:43.818Z,21.89
2023-01-19T06:27:43.784Z,21.88
2023-01-19T06:28:43.965Z,21.88
2023-01-19T06:29:43.794Z,21.88
2023-01-19T06:30:43.854Z,21.87
2023-01-19T06:31:43.808Z,21.87
2023-01-19T06:32:43.750Z,21.89
2023-01-19T06:33:43.957Z,21.89
2023-01-19T06:34:43.834Z,21.90
2023-01-19T06:35:43.736Z,21.90
2023-01-19T06:36:43.707Z,21.90
2023-01-19T06:37:43.980Z,21.90
2023-01-19T06:38:43.682Z,21.91
2023-01-19T06:39:43.965Z,21.91
2023-01-19T06:40:43.667Z,21.90
2023-01-19T06:41:43.662Z,21.91
2023-01-19T06:42:43.655Z,21.92
2023-01-19T06:43:43.644Z,21.93
2023-01-19T06:44:43.965Z,21.94
2023-01-19T06:45:45.184Z,21.94
2023-01-19T06:46:43.648Z,21.95
2023-01-19T06:47:43.987Z,21.93
2023-01-19T06:48:43.609Z,21.94
2023-01-19T06:49:43.979Z,21.93
2023-01-19T06:50:43.585Z,21.93
2023-01-19T06:51:43.581Z,21.92
2023-01-19T06:52:43.561Z,21.93
2023-01-19T06:55:43.551Z,21.91
2023-01-19T06:56:43.550Z,21.91
2023-01-19T06:59:44.028Z,21.90
2023-01-19T07:00:43.646Z,21.91
2023-01-19T07:01:43.591Z,21.91
2023-01-19T07:02:43.640Z,21.92
2023-01-19T07:03:45.476Z,21.92
2023-01-19T07:05:15.279Z,21.91
2023-01-19T07:05:46.637Z,21.92
2023-01-19T07:06:43.437Z,21.91
2023-01-19T07:08:43.439Z,21.92
2023-01-19T07:09:43.411Z,21.92
2023-01-19T07:11:43.397Z,21.92
2023-01-19T07:13:43.400Z,21.92
2023-01-19T07:15:43.378Z,21.92
2023-01-19T07:16:43.495Z,21.91
2023-01-19T07:17:43.502Z,21.91
2023-01-19T07:18:43.350Z,21.91
2023-01-19T07:19:43.341Z,21.92
2023-01-19T07:20:43.674Z,21.92
2023-01-19T07:21:43.303Z,21.92
2023-01-19T07:22:43.518Z,21.92
2023-01-19T07:23:43.308Z,21.93
2023-01-19T07:25:43.269Z,21.93
2023-01-19T07:26:43.484Z,21.95
2023-01-19T07:27:43.626Z,21.95
2023-01-19T07:28:43.275Z,21.95
2023-01-19T07:29:43.264Z,21.95
2023-01-19T07:30:43.498Z,21.95
2023-01-19T07:31:43.728Z,21.96
2023-01-19T07:32:43.236Z,21.96
2023-01-19T07:33:43.233Z,21.96
2023-01-19T07:34:43.874Z,21.96
2023-01-19T07:35:43.271Z,21.96
2023-01-19T07:36:43.632Z,21.95
2023-01-19T07:37:43.187Z,21.97
2023-01-19T07:38:43.348Z,21.96
2023-01-19T07:39:43.174Z,21.96
2023-01-19T07:40:43.166Z,21.96
2023-01-19T07:41:47.615Z,21.97
2023-01-19T07:42:43.250Z,21.97
2023-01-19T07:44:43.125Z,21.97
2023-01-19T07:45:43.697Z,21.97
2023-01-19T07:46:43.171Z,21.97
2023-01-19T07:47:43.168Z,21.96
2023-01-19T07:48:43.239Z,21.96
2023-01-19T07:49:43.091Z,21.97
2023-01-19T07:51:43.087Z,21.96
2023-01-19T07:52:43.058Z,21.97
2023-01-19T07:55:43.020Z,21.96
2023-01-19T07:56:43.008Z,21.96
2023-01-19T07:57:43.014Z,21.97
2023-01-19T07:58:44.017Z,21.96
2023-01-19T07:59:43.006Z,21.96
2023-01-19T08:00:43.029Z,21.96
2023-01-19T08:01:43.046Z,21.94
2023-01-19T08:02:42.976Z,21.95
2023-01-19T08:03:43.532Z,21.94
2023-01-19T08:04:43.073Z,21.94
2023-01-19T08:05:42.975Z,21.95
2023-01-19T08:06:42.957Z,21.95
2023-01-19T08:07:42.925Z,21.95
2023-01-19T08:08:42.916Z,21.96
2023-01-19T08:09:42.916Z,21.95
2023-01-19T08:10:42.907Z,21.95
2023-01-19T08:11:42.889Z,21.96
2023-01-19T08:12:42.878Z,21.97
2023-01-19T08:13:43.171Z,21.97
2023-01-19T08:14:42.851Z,21.96
2023-01-19T08:15:42.956Z,21.97
2023-01-19T08:16:42.858Z,21.97
2023-01-19T08:17:43.044Z,21.97
2023-01-19T08:18:42.826Z,21.97
2023-01-19T08:20:42.816Z,21.99
2023-01-19T08:21:43.030Z,21.99
2023-01-19T08:22:42.881Z,21.99
2023-01-19T08:23:43.113Z,21.98
2023-01-19T08:28:43.010Z,21.98
2023-01-19T08:36:43.320Z,21.99
2023-01-19T08:38:43.079Z,21.98
2023-01-19T08:43:43.384Z,21.98
2023-01-19T08:48:43.052Z,21.98
2023-01-19T08:49:43.070Z,21.97
2023-01-19T10:35:46.775Z,22.56
2023-01-19T11:27:43.066Z,22.81
2023-01-19T13:37:40.939Z,22.41
